Time;durP1;ratioP1;P1;durP2;ratioP2;P2;SDS_P1;SDS_P2;PMS_P1;PMS_P2;Temp;Humidity;BMP_temperature;BMP_pressure;BME280_temperature;BME280_humidity;BME280_pressure;Samples;Min_cycle;Max_cycle;Signal;HPM_P1;HPM_P2
2023/03/27 00:02:20;;;;;;;0.93;0.82;;;6.00;99.90;;;;;;5020313;28;20641;-75
2023/03/27 00:04:47;;;;;;;1.00;0.90;;;6.00;99.90;;;;;;5032268;28;20661;-75
2023/03/27 00:07:13;;;;;;;1.05;0.80;;;6.00;99.90;;;;;;5031494;28;20216;-75
2023/03/27 00:09:43;;;;;;;0.90;0.75;;;6.00;99.90;;;;;;5032169;28;20326;-75
2023/03/27 00:12:09;;;;;;;0.90;0.80;;;6.00;99.90;;;;;;5026594;28;20206;-75
2023/03/27 00:14:36;;;;;;;1.00;0.88;;;6.00;99.90;;;;;;5012215;28;20237;-75
2023/03/27 00:17:03;;;;;;;0.90;0.75;;;6.00;99.90;;;;;;5012400;28;20202;-75
2023/03/27 00:19:32;;;;;;;0.95;0.80;;;6.00;99.90;;;;;;5012235;28;20226;-75
2023/03/27 00:21:59;;;;;;;1.02;0.93;;;5.90;99.90;;;;;;5012539;28;20601;-75
2023/03/27 00:24:26;;;;;;;1.27;1.08;;;5.90;99.90;;;;;;5021155;28;20201;-75
2023/03/27 00:26:55;;;;;;;1.00;0.90;;;5.80;99.90;;;;;;5031690;28;20640;-75
2023/03/27 00:29:22;;;;;;;2.08;0.80;;;5.80;99.90;;;;;;5031949;28;20244;-75
2023/03/27 00:31:49;;;;;;;1.20;0.82;;;5.90;99.90;;;;;;5032043;28;20198;-75
2023/03/27 00:34:15;;;;;;;0.90;0.80;;;5.90;99.90;;;;;;5043581;22;20221;-69
2023/03/27 00:36:42;;;;;;;0.90;0.80;;;5.90;99.90;;;;;;4991317;28;20265;-70
2023/03/27 00:39:10;;;;;;;0.85;0.82;;;5.90;99.90;;;;;;4989897;28;20298;-70
2023/03/27 00:41:36;;;;;;;1.30;1.02;;;5.90;99.90;;;;;;4971746;28;20310;-70
2023/03/27 00:44:22;;;;;;;1.00;0.82;;;5.90;99.90;;;;;;4972051;28;20203;-70
2023/03/27 00:46:49;;;;;;;0.88;0.80;;;5.90;99.90;;;;;;4971495;28;20251;-70
2023/03/27 00:49:17;;;;;;;1.60;0.82;;;5.90;99.90;;;;;;4971570;28;20203;-70
2023/03/27 00:51:46;;;;;;;0.90;0.80;;;5.90;99.90;;;;;;4971552;28;20208;-70
2023/03/27 00:54:20;;;;;;;1.00;0.90;;;5.80;99.90;;;;;;4971588;28;20216;-70
2023/03/27 00:56:48;;;;;;;2.08;0.93;;;5.70;99.90;;;;;;4971193;28;20203;-69
2023/03/27 00:59:20;;;;;;;1.30;1.20;;;5.70;99.90;;;;;;4971411;28;20250;-70
2023/03/27 01:01:48;;;;;;;1.30;0.98;;;5.60;99.90;;;;;;4971496;28;20215;-70
2023/03/27 01:04:20;;;;;;;1.42;1.30;;;5.70;99.90;;;;;;4971522;28;20196;-70
2023/03/27 01:06:47;;;;;;;1.10;1.00;;;5.70;99.90;;;;;;4971040;28;20706;-70
2023/03/27 01:09:14;;;;;;;1.10;1.00;;;5.70;99.90;;;;;;4971482;28;20203;-70
2023/03/27 01:11:51;;;;;;;1.35;1.23;;;5.60;99.90;;;;;;4971319;28;20211;-70
2023/03/27 01:14:30;;;;;;;1.30;1.20;;;5.50;99.90;;;;;;4971226;28;20725;-70
2023/03/27 01:17:11;;;;;;;1.63;1.52;;;5.50;99.90;;;;;;4971289;28;20203;-70
2023/03/27 01:20:12;;;;;;;1.55;1.45;;;5.50;99.90;;;;;;4970971;28;20223;-70
2023/03/27 01:23:07;;;;;;;2.08;1.60;;;5.50;99.90;;;;;;4971145;28;20207;-69
2023/03/27 01:25:59;;;;;;;1.48;1.38;;;5.40;99.90;;;;;;4970934;28;20294;-70
2023/03/27 01:28:37;;;;;;;2.40;1.58;;;5.40;99.90;;;;;;4962620;28;20203;-70
2023/03/27 01:31:15;;;;;;;1.40;1.30;;;5.40;99.90;;;;;;4971693;28;20679;-70
2023/03/27 01:34:01;;;;;;;1.33;1.23;;;5.40;99.90;;;;;;4963472;28;20232;-70
2023/03/27 01:36:56;;;;;;;1.20;1.10;;;5.40;99.90;;;;;;4962594;28;20211;-70
2023/03/27 01:39:31;;;;;;;1.23;1.13;;;5.30;99.90;;;;;;4953615;28;20224;-70
2023/03/27 01:42:05;;;;;;;1.20;1.10;;;5.30;99.90;;;;;;4971351;28;20199;-70
2023/03/27 01:44:39;;;;;;;1.48;1.38;;;5.30;99.90;;;;;;4971196;28;20689;-70
2023/03/27 01:47:12;;;;;;;1.40;1.20;;;5.20;99.90;;;;;;4971190;28;20212;-70
2023/03/27 01:49:45;;;;;;;1.17;1.08;;;5.20;99.90;;;;;;4971320;28;20318;-70
2023/03/27 01:52:16;;;;;;;1.50;1.40;;;5.20;99.90;;;;;;4971139;28;20210;-70
2023/03/27 01:54:49;;;;;;;1.23;1.13;;;5.20;99.90;;;;;;4961231;28;20275;-69
2023/03/27 01:57:21;;;;;;;1.10;0.90;;;5.10;99.90;;;;;;4965927;28;20214;-70
2023/03/27 01:59:52;;;;;;;1.40;1.30;;;5.00;99.90;;;;;;4963330;28;20581;-70
2023/03/27 02:02:23;;;;;;;1.30;1.20;;;5.00;99.90;;;;;;4956629;28;20208;-70
2023/03/27 02:04:54;;;;;;;1.38;1.20;;;5.00;99.90;;;;;;4970498;28;20705;-70
2023/03/27 02:07:27;;;;;;;1.92;1.30;;;4.90;99.90;;;;;;4970730;28;20226;-70
2023/03/27 02:09:59;;;;;;;2.05;1.73;;;4.80;99.90;;;;;;4960037;28;20233;-70
2023/03/27 02:12:32;;;;;;;4.57;1.75;;;4.70;99.90;;;;;;4959302;28;20216;-70
2023/03/27 02:15:06;;;;;;;3.05;2.50;;;4.60;99.90;;;;;;4967366;28;20597;-70
2023/03/27 02:17:37;;;;;;;3.10;2.80;;;4.50;99.90;;;;;;4961976;28;20203;-72
2023/03/27 02:20:09;;;;;;;4.30;2.75;;;4.40;99.90;;;;;;4958852;28;20228;-70
2023/03/27 02:22:38;;;;;;;5.40;3.58;;;4.40;99.90;;;;;;4960460;28;20206;-70
2023/03/27 02:25:23;;;;;;;5.40;3.30;;;4.30;99.90;;;;;;4958441;28;20205;-70
2023/03/27 02:27:56;;;;;;;8.93;3.08;;;4.30;99.90;;;;;;4954344;28;20593;-70
2023/03/27 02:30:30;;;;;;;3.92;3.28;;;4.20;99.90;;;;;;4962715;28;20595;-70
2023/03/27 02:33:05;;;;;;;4.13;3.35;;;4.20;99.90;;;;;;4970808;28;20208;-70
2023/03/27 02:35:40;;;;;;;3.00;2.78;;;4.10;99.90;;;;;;4970188;28;20298;-71
2023/03/27 02:38:13;;;;;;;4.35;3.20;;;4.10;99.90;;;;;;4971509;28;20624;-70
2023/03/27 02:40:47;;;;;;;5.80;3.40;;;4.20;99.90;;;;;;4974380;28;20264;-70
2023/03/27 02:43:19;;;;;;;5.20;2.78;;;4.10;99.90;;;;;;4974458;28;20604;-70
2023/03/27 02:45:54;;;;;;;5.28;3.25;;;4.10;99.90;;;;;;4974131;28;20207;-70
2023/03/27 02:48:30;;;;;;;4.32;3.90;;;4.10;99.90;;;;;;4973933;28;20199;-70
2023/03/27 02:51:00;;;;;;;4.30;3.35;;;4.10;99.90;;;;;;4973598;28;20223;-70
2023/03/27 02:53:30;;;;;;;4.60;3.42;;;4.00;99.90;;;;;;4974112;28;20208;-70
2023/03/27 02:56:02;;;;;;;3.70;3.25;;;4.00;99.90;;;;;;4974035;28;20246;-70
2023/03/27 02:58:34;;;;;;;5.63;4.30;;;3.90;99.90;;;;;;4973811;28;20210;-70
2023/03/27 03:01:02;;;;;;;4.05;3.53;;;3.90;99.90;;;;;;4970478;28;20220;-71
2023/03/27 03:03:33;;;;;;;8.23;3.67;;;3.90;99.90;;;;;;4985759;28;20203;-70
2023/03/27 03:06:03;;;;;;;4.20;3.28;;;3.80;99.90;;;;;;4993555;28;20191;-71
2023/03/27 03:08:30;;;;;;;4.85;3.65;;;3.80;99.90;;;;;;4993063;28;20270;-71
2023/03/27 03:11:03;;;;;;;5.03;3.08;;;3.80;99.90;;;;;;4993096;28;20313;-71
2023/03/27 03:13:30;;;;;;;3.33;2.80;;;3.80;99.90;;;;;;4993392;28;20246;-71
2023/03/27 03:15:57;;;;;;;3.42;2.67;;;3.70;99.90;;;;;;4993027;28;20218;-70
2023/03/27 03:18:24;;;;;;;4.50;3.17;;;3.70;99.90;;;;;;4992827;28;20206;-71
2023/03/27 03:20:52;;;;;;;11.82;3.20;;;3.50;99.90;;;;;;4992875;28;20730;-70
2023/03/27 03:23:20;;;;;;;6.00;2.60;;;3.40;99.90;;;;;;4993063;28;20203;-71
2023/03/27 03:25:49;;;;;;;6.45;2.25;;;3.40;99.90;;;;;;4992864;28;20281;-71
2023/03/27 03:28:17;;;;;;;4.15;1.75;;;3.20;99.90;;;;;;4992675;28;20203;-71
2023/03/27 03:30:49;;;;;;;4.25;2.15;;;3.10;99.90;;;;;;4992842;28;20254;-71
2023/03/27 03:33:16;;;;;;;5.40;2.33;;;3.00;99.90;;;;;;4992658;28;20261;-71
2023/03/27 03:35:47;;;;;;;4.82;2.15;;;3.00;99.90;;;;;;4992423;28;20257;-70
2023/03/27 03:38:23;;;;;;;3.70;1.75;;;3.00;99.90;;;;;;4975369;28;20203;-70
2023/03/27 03:40:53;;;;;;;7.47;2.60;;;3.00;99.90;;;;;;4972667;28;20310;-71
2023/03/27 03:43:22;;;;;;;3.08;1.88;;;3.00;99.90;;;;;;4970605;28;20211;-71
2023/03/27 03:45:50;;;;;;;4.97;2.45;;;2.90;99.90;;;;;;4971748;28;20213;-71
2023/03/27 03:48:17;;;;;;;2.38;1.83;;;3.00;99.90;;;;;;4983814;28;20214;-71
2023/03/27 03:50:43;;;;;;;3.40;2.22;;;3.00;99.90;;;;;;4991464;28;20226;-71
2023/03/27 03:53:11;;;;;;;4.25;1.80;;;3.00;99.90;;;;;;4982923;28;20204;-71
2023/03/27 03:55:38;;;;;;;2.85;1.75;;;3.00;99.90;;;;;;4968932;28;20232;-70
2023/03/27 03:58:05;;;;;;;4.57;2.45;;;3.00;99.90;;;;;;4961966;28;20745;-70
2023/03/27 04:00:36;;;;;;;2.92;2.25;;;3.00;99.90;;;;;;4962526;28;20723;-70
2023/03/27 04:03:04;;;;;;;3.53;2.28;;;3.00;99.90;;;;;;4966433;28;20337;-70
2023/03/27 04:05:31;;;;;;;5.47;2.50;;;3.00;99.90;;;;;;4977730;28;20662;-70
2023/03/27 04:07:59;;;;;;;4.90;2.00;;;3.00;99.90;;;;;;4973535;28;20212;-70
2023/03/27 04:10:26;;;;;;;5.15;2.38;;;3.00;99.90;;;;;;4955558;28;20331;-70
2023/03/27 04:12:53;;;;;;;2.22;1.88;;;3.00;99.90;;;;;;4970374;28;20672;-69
2023/03/27 04:15:20;;;;;;;4.57;2.35;;;3.00;99.90;;;;;;4964458;28;20219;-69
2023/03/27 04:17:48;;;;;;;6.30;2.10;;;3.00;99.90;;;;;;4963329;28;20215;-69
2023/03/27 04:20:16;;;;;;;4.55;2.60;;;3.10;99.90;;;;;;4966199;28;20228;-70
2023/03/27 04:22:45;;;;;;;3.55;2.50;;;3.10;99.90;;;;;;4971762;28;20800;-70
2023/03/27 04:25:13;;;;;;;7.28;2.67;;;3.10;99.90;;;;;;4970296;28;20279;-70
2023/03/27 04:27:42;;;;;;;3.90;1.75;;;3.00;99.90;;;;;;4969413;28;20304;-70
2023/03/27 04:30:12;;;;;;;6.78;3.28;;;3.00;99.90;;;;;;4969503;28;20230;-70
2023/03/27 04:32:39;;;;;;;6.53;2.95;;;3.00;99.90;;;;;;4969280;28;20204;-69
2023/03/27 04:35:09;;;;;;;4.43;2.33;;;3.00;99.90;;;;;;4969227;28;20227;-70
2023/03/27 04:37:40;;;;;;;8.88;1.95;;;2.90;99.90;;;;;;4969105;28;20215;-71
2023/03/27 04:40:09;;;;;;;2.65;2.00;;;2.90;99.90;;;;;;4971010;28;20381;-71
2023/03/27 04:42:41;;;;;;;3.38;2.35;;;2.90;99.90;;;;;;4972099;28;20690;-72
2023/03/27 04:45:09;;;;;;;2.55;2.00;;;2.80;99.90;;;;;;4976549;28;20569;-71
2023/03/27 04:47:37;;;;;;;3.97;2.22;;;2.80;99.90;;;;;;4991024;28;20207;-69
2023/03/27 04:50:04;;;;;;;4.82;1.95;;;2.80;99.90;;;;;;4991027;28;20265;-69
2023/03/27 04:52:32;;;;;;;4.03;2.03;;;2.70;99.90;;;;;;4991407;28;20206;-70
2023/03/27 04:55:00;;;;;;;4.53;2.25;;;2.70;99.90;;;;;;4990953;28;20310;-71
2023/03/27 04:57:27;;;;;;;6.15;2.13;;;2.60;99.90;;;;;;4990967;28;20207;-72
2023/03/27 04:59:54;;;;;;;8.45;3.08;;;2.50;99.90;;;;;;4990964;28;20223;-70
2023/03/27 05:02:21;;;;;;;2.22;1.77;;;2.50;99.90;;;;;;4990813;28;20253;-71
2023/03/27 05:04:48;;;;;;;2.22;1.45;;;2.40;99.90;;;;;;4991048;28;20208;-69
2023/03/27 05:07:15;;;;;;;3.45;2.10;;;2.40;99.90;;;;;;4990843;28;20222;-70
2023/03/27 05:09:43;;;;;;;4.30;1.95;;;2.30;99.90;;;;;;4990843;28;20223;-70
2023/03/27 05:12:10;;;;;;;3.45;1.40;;;2.20;99.90;;;;;;4990833;28;20670;-70
2023/03/27 05:14:37;;;;;;;2.75;1.42;;;2.30;99.90;;;;;;4990926;28;20210;-69
2023/03/27 05:17:04;;;;;;;2.65;1.45;;;2.20;99.90;;;;;;4990440;28;20199;-71
2023/03/27 05:19:30;;;;;;;3.75;1.88;;;2.20;99.90;;;;;;4990696;28;20234;-71
2023/03/27 05:21:57;;;;;;;3.17;1.38;;;2.10;99.90;;;;;;4990777;28;20203;-70
2023/03/27 05:24:24;;;;;;;2.28;1.20;;;2.10;99.90;;;;;;4990950;28;20617;-71
2023/03/27 05:26:52;;;;;;;4.68;1.85;;;2.00;99.90;;;;;;4990582;28;20218;-69
2023/03/27 05:29:19;;;;;;;1.95;1.65;;;2.00;99.90;;;;;;4990637;28;20202;-69
2023/03/27 05:31:45;;;;;;;4.80;1.50;;;2.00;99.90;;;;;;4990681;28;20206;-68
2023/03/27 05:34:12;;;;;;;1.98;1.45;;;2.00;99.90;;;;;;4990571;28;20206;-69
2023/03/27 05:36:39;;;;;;;7.97;2.55;;;1.90;99.90;;;;;;4982697;28;20345;-70
2023/03/27 05:39:05;;;;;;;4.40;2.08;;;1.90;99.90;;;;;;4990086;28;20199;-69
2023/03/27 05:41:34;;;;;;;2.75;1.60;;;1.90;99.90;;;;;;4990526;28;20200;-69
2023/03/27 05:44:02;;;;;;;1.60;1.50;;;1.80;99.90;;;;;;4990540;28;20201;-68
2023/03/27 05:46:29;;;;;;;3.03;1.60;;;1.70;99.90;;;;;;4990125;28;20282;-71
2023/03/27 05:48:58;;;;;;;6.25;1.65;;;1.80;99.90;;;;;;4990069;28;20199;-68
2023/03/27 05:51:26;;;;;;;4.30;2.95;;;1.80;99.90;;;;;;4990002;28;20230;-71
2023/03/27 05:53:53;;;;;;;2.15;1.40;;;1.80;99.90;;;;;;4989123;28;20226;-71
2023/03/27 05:56:20;;;;;;;2.88;2.30;;;1.80;99.90;;;;;;4974637;28;20716;-70
2023/03/27 05:58:47;;;;;;;2.67;1.40;;;1.80;99.90;;;;;;4958973;28;20203;-70
2023/03/27 06:01:15;;;;;;;4.05;1.17;;;1.70;99.90;;;;;;4969950;28;20215;-69
2023/03/27 06:03:42;;;;;;;2.67;1.48;;;1.80;99.90;;;;;;4961975;28;20275;-70
2023/03/27 06:06:12;;;;;;;1.55;1.45;;;1.80;99.90;;;;;;4962092;28;20254;-70
2023/03/27 06:08:39;;;;;;;4.70;1.45;;;1.80;99.90;;;;;;4961896;28;21022;-70
2023/03/27 06:11:11;;;;;;;3.58;1.30;;;1.80;99.90;;;;;;4977814;28;20266;-70
2023/03/27 06:13:38;;;;;;;4.32;1.52;;;1.80;99.90;;;;;;4972315;28;20287;-69
2023/03/27 06:16:07;;;;;;;2.88;1.58;;;1.80;99.90;;;;;;4966144;28;20785;-70
2023/03/27 06:18:36;;;;;;;3.22;1.90;;;1.80;99.90;;;;;;4980384;28;20275;-70
2023/03/27 06:21:03;;;;;;;3.92;1.58;;;1.80;99.90;;;;;;4993198;28;20261;-70
2023/03/27 06:23:30;;;;;;;1.90;1.00;;;1.80;99.90;;;;;;4993185;28;20211;-71
2023/03/27 06:25:58;;;;;;;3.17;1.55;;;1.90;99.90;;;;;;4990975;28;20613;-69
2023/03/27 06:28:25;;;;;;;5.65;2.00;;;1.90;99.90;;;;;;4968329;28;20207;-70
2023/03/27 06:30:52;;;;;;;2.70;1.65;;;1.90;99.90;;;;;;4970819;28;20255;-71
2023/03/27 06:33:19;;;;;;;1.20;1.10;;;1.90;99.90;;;;;;4965031;28;20601;-69
2023/03/27 06:35:48;;;;;;;5.03;2.00;;;1.90;99.90;;;;;;4990001;28;20227;-70
2023/03/27 06:38:17;;;;;;;3.92;1.65;;;1.90;99.90;;;;;;4973375;28;20207;-70
2023/03/27 06:40:46;;;;;;;2.65;1.70;;;1.90;99.90;;;;;;4981698;28;20278;-70
2023/03/27 06:43:16;;;;;;;2.13;1.48;;;2.00;99.90;;;;;;4969470;28;20665;-71
2023/03/27 06:45:47;;;;;;;3.95;1.42;;;1.90;99.90;;;;;;4962220;28;20211;-70
2023/03/27 06:48:15;;;;;;;5.72;1.67;;;2.00;99.90;;;;;;4963280;28;20200;-70
2023/03/27 06:50:43;;;;;;;4.38;2.03;;;2.10;99.90;;;;;;4971751;28;20227;-70
2023/03/27 06:53:15;;;;;;;3.40;1.60;;;2.20;99.90;;;;;;4964091;28;20204;-68
2023/03/27 06:55:42;;;;;;;3.08;1.40;;;2.30;99.90;;;;;;4972416;28;20224;-68
2023/03/27 06:58:12;;;;;;;9.50;1.90;;;2.40;99.90;;;;;;4972375;28;20614;-70
2023/03/27 07:00:39;;;;;;;2.38;1.52;;;2.50;99.90;;;;;;4973012;28;20228;-71
2023/03/27 07:03:08;;;;;;;5.05;1.52;;;2.60;99.90;;;;;;4964044;28;20219;-70
2023/03/27 07:05:38;;;;;;;4.22;1.60;;;2.50;99.90;;;;;;4972528;28;20200;-71
2023/03/27 07:08:05;;;;;;;3.35;1.33;;;2.60;99.90;;;;;;4972411;28;20263;-71
2023/03/27 07:10:34;;;;;;;2.42;1.15;;;2.70;99.90;;;;;;4972081;28;20223;-70
2023/03/27 07:13:00;;;;;;;4.63;1.40;;;2.60;99.90;;;;;;4970685;28;20219;-71
2023/03/27 07:15:27;;;;;;;6.07;1.50;;;2.60;99.90;;;;;;4966365;28;20200;-69
2023/03/27 07:17:55;;;;;;;4.13;1.70;;;2.70;99.90;;;;;;4971772;28;20579;-71
2023/03/27 07:20:22;;;;;;;2.80;1.33;;;2.80;99.90;;;;;;4972173;28;20254;-71
2023/03/27 07:22:49;;;;;;;7.53;2.15;;;3.10;99.90;;;;;;4972376;28;20199;-70
2023/03/27 07:25:16;;;;;;;2.58;1.27;;;3.50;99.90;;;;;;4970459;28;20200;-69
2023/03/27 07:27:44;;;;;;;2.30;1.73;;;3.70;99.90;;;;;;4972274;28;20207;-72
2023/03/27 07:30:12;;;;;;;3.80;1.80;;;3.90;99.90;;;;;;4971674;28;20226;-72
2023/03/27 07:32:40;;;;;;;3.83;1.67;;;4.10;99.90;;;;;;4965074;28;20215;-73
2023/03/27 07:35:11;;;;;;;2.30;1.40;;;4.50;99.90;;;;;;4963568;28;20208;-72
2023/03/27 07:37:39;;;;;;;3.10;1.50;;;4.40;99.90;;;;;;4972486;28;20267;-70
2023/03/27 07:40:07;;;;;;;3.67;1.45;;;4.50;99.90;;;;;;4971800;28;20224;-68
2023/03/27 07:42:34;;;;;;;3.55;1.90;;;4.60;99.90;;;;;;4971534;28;20207;-69
2023/03/27 07:45:03;;;;;;;1.80;1.50;;;4.70;99.90;;;;;;4971908;28;20477;-71
2023/03/27 07:47:31;;;;;;;2.63;1.77;;;4.70;99.90;;;;;;4971162;28;20228;-70
2023/03/27 07:49:57;;;;;;;5.18;1.98;;;4.60;99.90;;;;;;4971731;28;20327;-72
2023/03/27 07:52:24;;;;;;;5.85;1.58;;;4.60;99.90;;;;;;4971457;28;20799;-70
2023/03/27 07:54:51;;;;;;;3.78;1.65;;;4.60;99.90;;;;;;4963079;28;20291;-70
2023/03/27 07:57:18;;;;;;;5.43;2.00;;;4.50;99.90;;;;;;4971350;28;20224;-72
2023/03/27 07:59:45;;;;;;;4.70;1.63;;;4.50;99.90;;;;;;4971900;28;20220;-67
2023/03/27 08:02:14;;;;;;;4.93;1.35;;;4.50;99.90;;;;;;4970851;28;20208;-70
2023/03/27 08:04:41;;;;;;;2.65;1.50;;;4.60;99.90;;;;;;4972035;28;20207;-69
2023/03/27 08:07:08;;;;;;;1.63;1.23;;;4.70;99.90;;;;;;4970954;28;20199;-70
2023/03/27 08:09:35;;;;;;;2.88;1.75;;;4.70;99.90;;;;;;4971432;28;20322;-70
2023/03/27 08:12:02;;;;;;;2.50;1.30;;;4.70;99.90;;;;;;4972221;28;20203;-71
2023/03/27 08:14:29;;;;;;;3.75;1.60;;;4.80;99.90;;;;;;4972359;28;20208;-70
2023/03/27 08:16:55;;;;;;;2.95;1.27;;;4.90;99.90;;;;;;4963592;28;20216;-68
2023/03/27 08:19:24;;;;;;;2.92;1.88;;;5.10;99.90;;;;;;4971765;28;20227;-69
2023/03/27 08:21:50;;;;;;;4.68;1.63;;;5.40;99.90;;;;;;4964376;28;20207;-69
2023/03/27 08:24:17;;;;;;;2.00;1.27;;;5.90;99.90;;;;;;4964119;28;20211;-69
2023/03/27 08:26:44;;;;;;;2.10;1.50;;;6.00;99.90;;;;;;4972092;28;20196;-70
2023/03/27 08:29:11;;;;;;;2.03;1.17;;;6.20;99.90;;;;;;4971593;28;20581;-68
2023/03/27 08:31:38;;;;;;;4.85;1.80;;;6.40;99.90;;;;;;4971263;28;20204;-69
2023/03/27 08:34:05;;;;;;;1.45;1.33;;;6.80;99.90;;;;;;4973767;28;20208;-69
2023/03/27 08:36:33;;;;;;;2.17;1.38;;;7.10;99.90;;;;;;4990819;28;20590;-70
2023/03/27 08:39:01;;;;;;;1.73;1.20;;;7.90;99.20;;;;;;4990773;28;20206;-69
2023/03/27 08:41:31;;;;;;;3.05;1.42;;;8.10;98.70;;;;;;4991152;28;20210;-69
2023/03/27 08:44:02;;;;;;;2.22;1.48;;;8.70;97.50;;;;;;4990919;28;20202;-71
2023/03/27 08:46:34;;;;;;;2.42;1.40;;;9.10;96.50;;;;;;4990856;28;20253;-70
2023/03/27 08:49:06;;;;;;;1.77;1.00;;;10.30;96.70;;;;;;4991122;28;20203;-71
2023/03/27 08:51:38;;;;;;;3.03;1.20;;;11.80;95.00;;;;;;4991073;28;20206;-70
2023/03/27 08:54:09;;;;;;;4.15;1.50;;;12.60;92.70;;;;;;4990915;28;20269;-68
2023/03/27 08:56:36;;;;;;;4.90;1.35;;;13.10;91.10;;;;;;4990598;28;20234;-70
2023/03/27 08:59:03;;;;;;;4.00;1.60;;;13.20;90.10;;;;;;4991089;28;20206;-68
2023/03/27 09:01:35;;;;;;;5.07;1.65;;;13.10;90.60;;;;;;4990810;28;20253;-71
2023/03/27 09:04:08;;;;;;;3.95;2.22;;;13.40;90.00;;;;;;4990900;28;20290;-69
2023/03/27 09:06:47;;;;;;;2.55;1.15;;;13.90;88.00;;;;;;4990730;28;20214;-68
2023/03/27 09:09:30;;;;;;;4.13;1.50;;;14.10;86.60;;;;;;4989970;28;20239;-69
2023/03/27 09:12:06;;;;;;;1.52;1.30;;;14.60;86.00;;;;;;4990864;28;20250;-69
2023/03/27 09:14:37;;;;;;;1.30;1.00;;;15.00;85.00;;;;;;4991170;28;20198;-69
2023/03/27 09:17:11;;;;;;;3.03;1.50;;;14.80;83.20;;;;;;4990708;28;20225;-70
2023/03/27 09:19:46;;;;;;;3.67;1.30;;;15.10;82.20;;;;;;4990740;28;20493;-68
2023/03/27 09:22:20;;;;;;;2.93;1.40;;;15.50;82.60;;;;;;4987708;28;20472;-68
2023/03/27 09:24:48;;;;;;;3.60;1.50;;;15.30;79.80;;;;;;4971614;28;20973;-69
2023/03/27 09:27:20;;;;;;;2.75;1.85;;;14.10;80.90;;;;;;4973956;28;20462;-67
2023/03/27 09:29:56;;;;;;;2.20;1.50;;;13.10;83.60;;;;;;4991901;28;20298;-71
2023/03/27 09:32:23;;;;;;;1.85;1.40;;;12.50;84.50;;;;;;4963313;28;20467;-68
2023/03/27 09:34:49;;;;;;;4.10;1.30;;;12.70;82.30;;;;;;4971265;28;20211;-68
2023/03/27 09:37:17;;;;;;;2.37;1.40;;;13.40;81.80;;;;;;4961965;28;20494;-67
2023/03/27 09:39:49;;;;;;;2.70;1.30;;;14.50;83.40;;;;;;4971165;28;21005;-67
2023/03/27 09:42:22;;;;;;;3.33;1.23;;;15.60;81.20;;;;;;4970825;28;21099;-67
2023/03/27 09:44:54;;;;;;;2.17;1.20;;;16.20;79.40;;;;;;4970750;28;20459;-68
2023/03/27 09:47:26;;;;;;;2.43;2.23;;;16.50;78.80;;;;;;4970028;28;20455;-68
2023/03/27 09:49:59;;;;;;;3.70;1.50;;;17.10;80.20;;;;;;4971078;28;20494;-68
2023/03/27 09:52:38;;;;;;;3.63;1.40;;;16.90;76.40;;;;;;4970449;28;20462;-67
2023/03/27 09:55:25;;;;;;;4.37;1.57;;;15.40;75.80;;;;;;4970862;28;20474;-68
2023/03/27 09:57:57;;;;;;;3.43;1.33;;;14.40;78.70;;;;;;4970441;28;20483;-67
2023/03/27 10:00:30;;;;;;;2.50;1.17;;;14.70;78.50;;;;;;4970071;28;20478;-68
2023/03/27 10:03:02;;;;;;;5.70;1.30;;;14.20;78.30;;;;;;4970848;28;20994;-68
2023/03/27 10:05:30;;;;;;;2.40;1.50;;;13.40;79.20;;;;;;4970639;28;20888;-68
2023/03/27 10:07:58;;;;;;;2.40;1.42;;;13.50;80.70;;;;;;4970281;28;20250;-68
2023/03/27 10:10:30;;;;;;;1.88;1.40;;;14.40;81.20;;;;;;4969871;28;20219;-68
2023/03/27 10:12:59;;;;;;;3.03;1.20;;;15.20;78.30;;;;;;4962852;28;20281;-68
2023/03/27 10:15:34;;;;;;;2.10;0.97;;;15.60;76.00;;;;;;4962319;28;20847;-68
2023/03/27 10:18:05;;;;;;;1.80;1.13;;;15.10;73.90;;;;;;4970162;28;20549;-68
2023/03/27 10:20:32;;;;;;;1.83;1.10;;;13.80;75.30;;;;;;4970395;28;20487;-67
2023/03/27 10:23:02;;;;;;;2.00;1.38;;;12.40;80.00;;;;;;4970022;28;20840;-67
2023/03/27 10:25:33;;;;;;;2.42;1.23;;;12.70;79.80;;;;;;4970347;28;20200;-67
2023/03/27 10:28:15;;;;;;;2.08;1.35;;;14.20;78.00;;;;;;4970360;28;20202;-68
2023/03/27 10:30:42;;;;;;;2.03;1.30;;;14.80;76.50;;;;;;4970889;28;20571;-68
2023/03/27 10:33:08;;;;;;;1.77;1.10;;;15.70;75.40;;;;;;4962109;28;20471;-68
2023/03/27 10:35:37;;;;;;;3.87;1.40;;;16.60;72.90;;;;;;4965397;28;20866;-68
2023/03/27 10:38:11;;;;;;;2.10;1.37;;;17.40;71.60;;;;;;4967497;28;20486;-69
2023/03/27 10:40:39;;;;;;;5.33;1.77;;;18.00;67.40;;;;;;4970516;28;20554;-68
2023/03/27 10:43:11;;;;;;;2.43;1.17;;;18.80;68.10;;;;;;4970206;28;20470;-68
2023/03/27 10:45:45;;;;;;;1.63;1.13;;;19.30;65.30;;;;;;4970376;28;20874;-68
2023/03/27 10:48:27;;;;;;;2.20;1.40;;;19.60;67.30;;;;;;4970246;28;20509;-68
2023/03/27 10:50:58;;;;;;;3.37;1.30;;;19.40;68.00;;;;;;4967376;28;20570;-67
2023/03/27 10:53:32;;;;;;;1.70;1.33;;;18.70;63.70;;;;;;4969177;28;20463;-70
2023/03/27 10:56:03;;;;;;;1.93;1.20;;;17.20;65.80;;;;;;4963160;28;20474;-69
2023/03/27 10:58:35;;;;;;;2.83;1.30;;;16.80;66.70;;;;;;4969347;28;20485;-69
2023/03/27 11:01:06;;;;;;;1.80;1.17;;;18.00;65.10;;;;;;4982035;28;20537;-68
2023/03/27 11:03:38;;;;;;;3.73;1.77;;;19.40;66.30;;;;;;4973870;28;20471;-68
2023/03/27 11:06:11;;;;;;;3.57;1.10;;;19.50;65.60;;;;;;4973551;28;20467;-66
2023/03/27 11:08:50;;;;;;;2.90;1.03;;;19.30;63.90;;;;;;4973338;28;20466;-67
2023/03/27 11:11:21;;;;;;;2.57;1.50;;;19.00;65.90;;;;;;4991208;28;20559;-67
2023/03/27 11:13:48;;;;;;;1.83;1.40;;;19.10;64.80;;;;;;4984059;28;20954;-66
2023/03/27 11:16:20;;;;;;;2.47;1.37;;;19.30;66.00;;;;;;4956812;28;20463;-68
2023/03/27 11:18:51;;;;;;;2.27;1.27;;;19.90;65.50;;;;;;4971145;28;20486;-68
2023/03/27 11:21:23;;;;;;;3.13;1.50;;;19.80;60.70;;;;;;4972290;28;20491;-68
2023/03/27 11:23:56;;;;;;;3.90;1.60;;;19.40;61.70;;;;;;4960630;28;20479;-67
2023/03/27 11:26:27;;;;;;;4.97;1.50;;;18.90;60.70;;;;;;4970403;28;20852;-67
2023/03/27 11:28:57;;;;;;;4.23;1.43;;;17.70;63.90;;;;;;4968891;28;20877;-68
2023/03/27 11:31:36;;;;;;;1.40;1.30;;;17.60;65.00;;;;;;4972798;28;20515;-66
2023/03/27 11:34:07;;;;;;;2.20;1.43;;;17.90;61.80;;;;;;4972577;28;20541;-68
2023/03/27 11:36:41;;;;;;;2.70;1.23;;;17.70;62.60;;;;;;4973013;28;20953;-68
2023/03/27 11:39:17;;;;;;;3.00;1.30;;;16.60;64.30;;;;;;4972620;28;20466;-70
2023/03/27 11:41:49;;;;;;;1.63;1.10;;;15.40;64.40;;;;;;4973393;28;20471;-70
2023/03/27 11:44:16;;;;;;;3.33;1.33;;;15.50;66.60;;;;;;4972915;28;20526;-70
2023/03/27 11:47:06;;;;;;;1.50;1.07;;;15.30;66.40;;;;;;4972983;28;20474;-69
2023/03/27 11:49:45;;;;;;;3.83;1.27;;;14.80;68.40;;;;;;4966025;28;20493;-70
2023/03/27 11:52:23;;;;;;;1.33;1.13;;;13.90;68.30;;;;;;4973335;28;20553;-71
2023/03/27 11:55:06;;;;;;;2.73;1.57;;;12.60;71.20;;;;;;4973554;28;20466;-73
2023/03/27 11:57:39;;;;;;;2.10;1.38;;;11.90;73.50;;;;;;4973114;28;20533;-69
2023/03/27 12:00:28;;;;;;;4.93;1.50;;;12.80;71.90;;;;;;4972243;28;20626;-69
2023/03/27 12:03:27;;;;;;;1.97;1.00;;;14.60;69.50;;;;;;4972967;28;20258;-69
2023/03/27 12:06:14;;;;;;;3.00;1.00;;;16.10;66.80;;;;;;4967934;28;20467;-69
2023/03/27 12:09:10;;;;;;;2.40;1.10;;;16.10;65.60;;;;;;4972392;28;20471;-72
2023/03/27 12:11:43;;;;;;;1.80;1.60;;;14.90;67.10;;;;;;4964828;28;20485;-71
2023/03/27 12:14:42;;;;;;;1.97;1.27;;;15.00;70.00;;;;;;4972132;28;20212;-69
2023/03/27 12:17:20;;;;;;;2.20;1.63;;;16.30;64.20;;;;;;4971920;28;20459;-70
2023/03/27 12:20:18;;;;;;;1.33;1.00;;;17.50;64.80;;;;;;4972066;28;20482;-73
2023/03/27 12:22:56;;;;;;;4.27;1.23;;;18.60;62.80;;;;;;4967576;28;20475;-70
2023/03/27 12:25:37;;;;;;;0.90;0.80;;;18.50;61.30;;;;;;4971984;28;20554;-70
2023/03/27 12:28:16;;;;;;;1.20;1.10;;;17.10;61.50;;;;;;4971675;28;20521;-68
2023/03/27 12:30:53;;;;;;;3.30;1.60;;;15.70;62.00;;;;;;4972423;28;20573;-75
2023/03/27 12:33:35;;;;;;;1.90;1.33;;;15.70;64.90;;;;;;4967380;28;20482;-69
2023/03/27 12:36:06;;;;;;;2.90;1.20;;;15.50;63.20;;;;;;4960002;28;20486;-70
2023/03/27 12:38:37;;;;;;;1.97;1.20;;;14.60;64.60;;;;;;4966103;28;20479;-69
2023/03/27 12:41:12;;;;;;;2.60;1.00;;;13.80;65.90;;;;;;4972152;28;20925;-69
2023/03/27 12:43:44;;;;;;;1.43;1.33;;;13.10;68.20;;;;;;4964829;28;20517;-69
2023/03/27 12:46:15;;;;;;;1.80;0.90;;;12.40;67.80;;;;;;4978903;28;20462;-72
2023/03/27 12:48:54;;;;;;;1.35;1.08;;;12.00;71.60;;;;;;4971156;28;20200;-68
2023/03/27 12:51:36;;;;;;;4.30;1.25;;;11.40;71.30;;;;;;4971403;28;20231;-70
2023/03/27 12:54:14;;;;;;;1.95;1.10;;;11.10;73.40;;;;;;4972135;28;20208;-71
2023/03/27 12:56:41;;;;;;;2.47;1.23;;;11.00;75.10;;;;;;4964429;28;20210;-71
2023/03/27 12:59:25;;;;;;;1.90;1.35;;;11.10;75.60;;;;;;4971297;28;20227;-72
2023/03/27 13:02:12;;;;;;;3.15;1.38;;;11.20;73.80;;;;;;4979873;28;20626;-72
2023/03/27 13:05:11;;;;;;;1.75;1.10;;;11.00;71.50;;;;;;4990489;28;20203;-71
2023/03/27 13:07:47;;;;;;;1.73;0.93;;;10.70;74.60;;;;;;4978490;28;20215;-72
2023/03/27 13:10:29;;;;;;;2.42;1.25;;;10.50;73.90;;;;;;4973597;28;20315;-71
2023/03/27 13:13:32;;;;;;;1.33;1.23;;;10.30;76.70;;;;;;4977402;28;20578;-72
2023/03/27 13:16:15;;;;;;;2.28;1.30;;;10.70;77.70;;;;;;4966889;28;20681;-71